Time;durP1;ratioP1;P1;durP2;ratioP2;P2;SDS_P1;SDS_P2;PMS_P1;PMS_P2;Temp;Humidity;BMP_temperature;BMP_pressure;BME280_temperature;BME280_humidity;BME280_pressure;Samples;Min_cycle;Max_cycle;Signal;HPM_P1;HPM_P2
2023/11/05 00:01:30;;;;;;;0.90;0.50;;;;;;;4.07;88.35;94029.58;106675;1275;22519;-79
2023/11/05 00:03:58;;;;;;;0.80;0.60;;;;;;;3.98;88.28;94036.36;106671;1261;24227;-79
2023/11/05 00:06:27;;;;;;;1.10;0.70;;;;;;;3.92;88.29;94039.77;106585;1275;24286;-79
2023/11/05 00:08:55;;;;;;;6.60;1.40;;;;;;;3.87;88.46;94037.08;106674;1275;24229;-79
2023/11/05 00:11:23;;;;;;;0.80;0.60;;;;;;;3.83;88.68;94036.61;106688;1275;24209;-79
2023/11/05 00:13:52;;;;;;;3.30;1.00;;;;;;;3.82;88.75;94037.52;106662;1275;22516;-79
2023/11/05 00:16:20;;;;;;;0.90;0.80;;;;;;;3.76;88.44;94038.48;106725;1275;24350;-79
2023/11/05 00:18:48;;;;;;;3.90;1.50;;;;;;;3.72;88.83;94042.75;106628;1275;22526;-79
2023/11/05 00:21:16;;;;;;;1.60;0.70;;;;;;;3.74;89.33;94048.09;106626;1275;24295;-79
2023/11/05 00:23:44;;;;;;;3.30;1.20;;;;;;;3.76;89.17;94043.89;106691;1275;25491;-79
2023/11/05 00:26:12;;;;;;;6.70;3.20;;;;;;;3.73;88.96;94043.95;106661;1275;22584;-79
2023/11/05 00:28:42;;;;;;;2.20;1.70;;;;;;;3.66;89.01;94041.10;106667;1275;25500;-79
2023/11/05 00:31:10;;;;;;;3.70;2.20;;;;;;;3.63;88.81;94035.59;106706;1275;25272;-79
2023/11/05 00:33:38;;;;;;;7.00;2.60;;;;;;;3.55;88.65;94040.94;106709;1275;25518;-79
2023/11/05 00:36:09;;;;;;;4.90;2.80;;;;;;;3.47;88.84;94051.48;106724;1275;22519;-79
2023/11/05 00:38:37;;;;;;;1.70;1.60;;;;;;;3.42;88.93;94053.66;106725;1272;22595;-79
2023/11/05 00:41:05;;;;;;;3.60;2.40;;;;;;;3.39;89.08;94053.73;106753;1275;25379;-79
2023/11/05 00:43:34;;;;;;;2.30;2.00;;;;;;;3.29;89.14;94053.34;106739;1275;23016;-79
2023/11/05 00:46:02;;;;;;;3.50;2.30;;;;;;;3.20;89.19;94061.82;106764;1275;23965;-79
2023/11/05 00:48:30;;;;;;;4.10;2.40;;;;;;;3.11;88.92;94060.56;106767;1275;25368;-79
2023/11/05 00:50:59;;;;;;;15.40;7.80;;;;;;;3.03;89.13;94060.35;106784;1275;22520;-79
2023/11/05 00:53:27;;;;;;;27.20;12.90;;;;;;;2.97;89.32;94059.55;106732;1275;24278;-78
2023/11/05 00:55:55;;;;;;;12.10;6.50;;;;;;;2.92;89.34;94060.14;106723;1275;25542;-79
2023/11/05 00:58:23;;;;;;;3.40;2.70;;;;;;;2.90;89.41;94055.48;106860;1275;22669;-78
2023/11/05 01:00:52;;;;;;;4.10;2.80;;;;;;;2.90;89.66;94052.87;106718;1275;22528;-79
2023/11/05 01:03:20;;;;;;;3.60;2.40;;;;;;;2.89;89.41;94053.23;106753;1275;23902;-79
2023/11/05 01:05:48;;;;;;;8.90;5.60;;;;;;;2.84;89.40;94053.30;106789;1275;23801;-80
2023/11/05 01:08:17;;;;;;;11.40;6.90;;;;;;;2.77;89.00;94057.58;106648;1275;25361;-78
2023/11/05 01:10:47;;;;;;;7.90;5.50;;;;;;;2.68;89.10;94058.04;106708;1275;24219;-80
2023/11/05 01:13:16;;;;;;;14.20;5.90;;;;;;;2.62;89.59;94066.09;106762;1275;22539;-80
2023/11/05 01:15:44;;;;;;;5.80;4.40;;;;;;;2.63;89.91;94066.45;106738;1275;22543;-79
2023/11/05 01:18:12;;;;;;;7.90;5.40;;;;;;;2.66;90.43;94065.70;106641;1275;22641;-79
2023/11/05 01:20:40;;;;;;;5.30;3.40;;;;;;;2.69;90.45;94064.62;106756;1260;22624;-79
2023/11/05 01:23:09;;;;;;;7.60;5.30;;;;;;;2.74;90.67;94063.69;106743;1275;25415;-78
2023/11/05 01:25:37;;;;;;;7.30;5.40;;;;;;;2.76;90.26;94054.80;106858;1275;25024;-79
2023/11/05 01:28:05;;;;;;;3.90;3.10;;;;;;;2.80;90.29;94060.82;106771;1274;22540;-78
2023/11/05 01:30:34;;;;;;;5.40;3.20;;;;;;;2.90;90.70;94059.30;106773;1275;22540;-79
2023/11/05 01:33:02;;;;;;;5.20;3.50;;;;;;;2.90;90.37;94067.80;106715;1275;24240;-79
2023/11/05 01:35:31;;;;;;;4.30;3.00;;;;;;;2.95;90.55;94059.93;106731;1275;23149;-79
2023/11/05 01:37:59;;;;;;;5.00;2.80;;;;;;;3.02;90.68;94053.92;106645;1275;22570;-79
2023/11/05 01:40:28;;;;;;;11.10;6.50;;;;;;;3.11;90.60;94038.52;106703;1275;22517;-79
2023/11/05 01:42:57;;;;;;;15.70;8.00;;;;;;;3.10;90.07;94030.36;106625;1275;22661;-79
2023/11/05 01:45:25;;;;;;;11.10;6.60;;;;;;;3.08;89.96;94022.39;106668;1275;25404;-79
2023/11/05 01:47:53;;;;;;;28.50;13.80;;;;;;;3.09;89.87;94023.24;106821;1275;22523;-79
2023/11/05 01:50:23;;;;;;;9.40;5.50;;;;;;;3.08;89.78;94027.26;106766;1275;25291;-79
2023/11/05 01:52:55;;;;;;;14.30;8.30;;;;;;;3.07;89.86;94029.00;106830;1270;22519;-79
2023/11/05 01:55:25;;;;;;;23.40;12.90;;;;;;;3.05;89.66;94026.77;106804;1275;24582;-80
2023/11/05 01:57:53;;;;;;;18.30;9.60;;;;;;;3.03;89.62;94028.55;106777;1275;25264;-79
2023/11/05 02:00:22;;;;;;;5.00;1.90;;;;;;;3.11;90.03;94028.95;106676;1275;22630;-78
2023/11/05 02:02:51;;;;;;;13.60;7.60;;;;;;;3.16;89.86;94029.58;106618;1275;22655;-79
2023/11/05 02:05:20;;;;;;;4.90;2.60;;;;;;;3.12;89.18;94025.98;106779;1274;22516;-79
2023/11/05 02:07:49;;;;;;;11.30;6.20;;;;;;;3.18;90.02;94024.49;106925;1275;22524;-81
2023/11/05 02:10:17;;;;;;;16.40;8.80;;;;;;;3.19;89.11;94028.30;106673;1275;22756;-79
2023/11/05 02:13:15;;;;;;;15.20;8.50;;;;;;;3.18;88.97;94025.88;106766;1275;22528;-79
2023/11/05 02:15:44;;;;;;;13.30;6.40;;;;;;;3.11;88.49;94016.77;106669;1275;22536;-79
2023/11/05 02:18:12;;;;;;;10.90;6.40;;;;;;;3.00;88.39;94014.35;106724;1275;22730;-80
2023/11/05 02:20:41;;;;;;;9.80;6.40;;;;;;;2.94;88.79;94019.30;106752;1275;24255;-79
2023/11/05 02:23:17;;;;;;;10.20;5.20;;;;;;;2.95;89.29;94011.30;106772;1275;22924;-79
2023/11/05 02:25:45;;;;;;;7.80;4.70;;;;;;;2.95;89.32;93997.77;106673;1269;24269;-80
2023/11/05 02:28:13;;;;;;;7.00;4.90;;;;;;;2.92;89.56;94001.10;106767;1254;24248;-79
2023/11/05 02:30:41;;;;;;;6.00;4.60;;;;;;;2.87;89.73;94007.41;106804;1275;25362;-79
2023/11/05 02:33:10;;;;;;;8.20;5.60;;;;;;;2.83;89.78;94001.39;106630;1275;22630;-79
2023/11/05 02:35:38;;;;;;;8.80;4.10;;;;;;;2.77;89.58;94006.52;106786;1275;24390;-79
2023/11/05 02:38:06;;;;;;;2.90;2.30;;;;;;;2.78;89.76;93994.70;106653;1274;24432;-79
2023/11/05 02:40:35;;;;;;;3.00;2.30;;;;;;;2.76;89.82;93994.73;106795;1275;24271;-79
2023/11/05 02:43:03;;;;;;;7.00;3.80;;;;;;;2.76;90.02;93994.55;106867;1274;24372;-79
2023/11/05 02:45:32;;;;;;;2.80;1.60;;;;;;;2.73;89.87;94002.25;106700;1275;23006;-78
2023/11/05 02:48:00;;;;;;;4.20;2.30;;;;;;;2.73;90.16;93999.98;106804;1274;25425;-79
2023/11/05 02:50:28;;;;;;;2.70;1.60;;;;;;;2.71;90.09;93996.88;106653;1275;25356;-78
2023/11/05 02:52:56;;;;;;;3.70;2.20;;;;;;;2.72;91.41;94012.14;106756;1275;25421;-79
2023/11/05 02:55:25;;;;;;;3.50;1.80;;;;;;;2.80;91.79;94010.83;106862;1275;22535;-79
2023/11/05 02:57:53;;;;;;;4.20;2.80;;;;;;;2.83;91.36;94015.83;106759;1274;22530;-79
2023/11/05 03:00:25;;;;;;;7.80;3.80;;;;;;;2.80;91.16;94020.89;106739;1273;22512;-79
2023/11/05 03:02:53;;;;;;;3.70;2.00;;;;;;;2.81;91.16;94019.49;106768;1254;25511;-79
2023/11/05 03:05:22;;;;;;;6.60;4.60;;;;;;;2.86;91.60;94017.67;106866;1275;22516;-79
2023/11/05 03:07:50;;;;;;;3.50;2.40;;;;;;;2.90;90.98;94019.71;106677;1274;22459;-79
2023/11/05 03:10:18;;;;;;;7.30;3.70;;;;;;;2.95;91.16;94016.33;106629;1275;22505;-79
2023/11/05 03:12:46;;;;;;;5.50;3.00;;;;;;;3.01;91.13;94013.98;106770;1275;22531;-79
2023/11/05 03:15:14;;;;;;;3.10;2.60;;;;;;;3.07;91.12;94016.86;106955;1275;25414;-79
2023/11/05 03:17:42;;;;;;;4.10;2.40;;;;;;;3.15;91.27;94010.29;107033;1275;22523;-79
2023/11/05 03:20:11;;;;;;;3.50;2.30;;;;;;;3.22;91.06;94006.70;106839;1275;25332;-79
2023/11/05 03:22:39;;;;;;;6.30;3.00;;;;;;;3.28;91.39;94007.48;106751;1275;22514;-79
2023/11/05 03:25:10;;;;;;;4.70;3.00;;;;;;;3.37;91.52;94017.77;106808;1254;25493;-79
2023/11/05 03:27:38;;;;;;;5.50;3.40;;;;;;;3.50;91.56;94015.48;106660;1275;23921;-79
2023/11/05 03:30:07;;;;;;;3.30;2.60;;;;;;;3.52;90.70;94008.14;106762;1275;25641;-79
2023/11/05 03:32:35;;;;;;;6.50;4.00;;;;;;;3.54;91.14;94008.27;106779;1275;23881;-80
2023/11/05 03:35:05;;;;;;;7.20;5.00;;;;;;;3.62;91.46;94007.45;106624;1275;24212;-79
2023/11/05 03:37:33;;;;;;;8.60;5.80;;;;;;;3.65;91.19;94011.55;106709;1275;25350;-80
2023/11/05 03:40:02;;;;;;;8.60;5.30;;;;;;;3.73;91.55;94010.72;106779;1275;25521;-79
2023/11/05 03:42:31;;;;;;;4.70;3.60;;;;;;;3.82;91.49;94006.39;106594;1275;22614;-80
2023/11/05 03:44:59;;;;;;;10.20;4.50;;;;;;;3.86;90.85;94010.14;106736;1275;22752;-80
2023/11/05 03:47:27;;;;;;;9.30;4.00;;;;;;;3.91;91.10;94001.00;106697;1275;22524;-79
2023/11/05 03:49:55;;;;;;;2.30;1.70;;;;;;;4.02;91.30;93988.62;106662;1274;22524;-79
2023/11/05 03:52:23;;;;;;;3.10;1.20;;;;;;;4.16;91.40;93991.83;106728;1275;22643;-79
2023/11/05 03:54:52;;;;;;;3.80;2.20;;;;;;;4.24;91.36;93973.56;106928;1275;22520;-79
2023/11/05 03:57:21;;;;;;;3.40;2.70;;;;;;;4.25;90.70;93968.66;106710;1275;22808;-79
2023/11/05 03:59:49;;;;;;;2.40;1.70;;;;;;;4.23;90.90;93965.94;106793;1275;22464;-79
2023/11/05 04:02:17;;;;;;;2.80;1.50;;;;;;;4.35;91.65;93969.69;106759;1274;22523;-79
2023/11/05 04:04:46;;;;;;;2.50;1.60;;;;;;;4.45;91.31;93964.78;106746;1273;24209;-79
2023/11/05 04:07:15;;;;;;;2.40;1.70;;;;;;;4.49;91.37;93964.86;106692;1274;22531;-79
2023/11/05 04:09:43;;;;;;;2.00;1.30;;;;;;;4.57;91.08;93968.88;106731;1275;25356;-79
2023/11/05 04:12:11;;;;;;;1.50;0.90;;;;;;;4.59;90.86;93960.46;106791;1271;24251;-79
2023/11/05 04:14:39;;;;;;;1.30;1.00;;;;;;;4.68;91.01;93960.45;106836;1275;22528;-79
2023/11/05 04:17:07;;;;;;;3.10;1.50;;;;;;;4.72;90.78;93962.44;106814;1257;22525;-80
2023/11/05 04:19:36;;;;;;;22.20;11.20;;;;;;;4.81;91.10;93957.52;106669;1272;22535;-79
2023/11/05 04:22:04;;;;;;;5.50;3.60;;;;;;;4.91;91.20;93952.42;106753;1274;25427;-79
2023/11/05 04:24:32;;;;;;;13.00;7.30;;;;;;;4.96;90.66;93948.14;106804;1275;22513;-78
2023/11/05 04:27:00;;;;;;;19.30;9.20;;;;;;;4.98;90.43;93946.16;106672;1274;22523;-80
2023/11/05 04:29:28;;;;;;;24.40;11.90;;;;;;;5.02;90.43;93932.48;106683;1275;25373;-79
2023/11/05 04:31:59;;;;;;;18.30;11.60;;;;;;;5.00;89.85;93934.10;106740;1275;22507;-80
2023/11/05 04:34:31;;;;;;;13.90;9.00;;;;;;;4.99;90.17;93922.98;106784;1263;22533;-80
2023/11/05 04:37:00;;;;;;;18.20;12.10;;;;;;;5.03;90.27;93925.31;106711;1275;22540;-79
2023/11/05 04:39:29;;;;;;;21.80;13.70;;;;;;;5.02;89.90;93915.43;106759;1275;22537;-78
2023/11/05 04:41:57;;;;;;;16.50;10.90;;;;;;;5.02;90.17;93912.10;106761;1275;24060;-79
2023/11/05 04:44:26;;;;;;;18.50;12.40;;;;;;;5.02;90.08;93906.52;106754;1274;22539;-79
2023/11/05 04:46:54;;;;;;;25.80;18.40;;;;;;;4.98;90.24;93900.52;106724;1275;25300;-79
2023/11/05 04:49:22;;;;;;;35.60;19.70;;;;;;;4.96;90.04;93904.05;106785;1274;22525;-79
2023/11/05 04:51:50;;;;;;;74.70;36.10;;;;;;;4.91;89.96;93897.02;106686;1263;24257;-79
2023/11/05 04:54:19;;;;;;;29.60;17.10;;;;;;;4.85;90.16;93895.77;106788;1275;25307;-79
2023/11/05 04:56:47;;;;;;;56.40;29.70;;;;;;;4.83;90.31;93890.95;106804;1275;22514;-80
2023/11/05 04:59:15;;;;;;;72.90;39.00;;;;;;;4.81;90.72;93892.73;106627;1275;22546;-79
2023/11/05 05:01:43;;;;;;;62.70;35.90;;;;;;;4.79;90.44;93893.66;106748;1275;25536;-79
2023/11/05 05:04:12;;;;;;;43.90;25.40;;;;;;;4.76;90.27;93891.11;106820;1274;22524;-79
2023/11/05 05:06:40;;;;;;;41.40;25.10;;;;;;;4.71;90.47;93882.70;106785;1275;22585;-80
2023/11/05 05:09:09;;;;;;;46.10;24.50;;;;;;;4.64;90.57;93887.05;106682;1275;22525;-80
2023/11/05 05:11:38;;;;;;;81.20;40.70;;;;;;;4.55;90.44;93881.85;106827;1272;24396;-79
2023/11/05 05:14:06;;;;;;;72.30;35.60;;;;;;;4.50;90.44;93884.05;106737;1272;22568;-79
2023/11/05 05:16:34;;;;;;;12.10;5.60;;;;;;;4.44;90.37;93881.93;106661;1275;22539;-79
2023/11/05 05:19:02;;;;;;;2.20;1.40;;;;;;;4.43;90.62;93876.89;106802;1275;24253;-79
2023/11/05 05:21:31;;;;;;;3.10;2.00;;;;;;;4.42;90.52;93868.75;106619;1275;22576;-79
2023/11/05 05:23:59;;;;;;;32.70;19.50;;;;;;;4.37;90.70;93867.46;106704;1275;24273;-79
2023/11/05 05:26:27;;;;;;;12.50;6.50;;;;;;;4.32;90.66;93865.67;106766;1275;25571;-79
2023/11/05 05:28:55;;;;;;;15.50;9.00;;;;;;;4.29;90.70;93876.52;106628;1275;26586;-79
2023/11/05 05:31:23;;;;;;;6.30;2.90;;;;;;;4.25;90.99;93885.11;106834;1275;24380;-79
2023/11/05 05:33:52;;;;;;;3.30;2.70;;;;;;;4.27;91.07;93885.60;106762;1275;22518;-79
2023/11/05 05:36:20;;;;;;;11.70;6.90;;;;;;;4.26;90.95;93881.98;106771;1275;22534;-79
2023/11/05 05:38:48;;;;;;;20.30;11.00;;;;;;;4.23;90.84;93882.56;106783;1275;22624;-79
2023/11/05 05:41:16;;;;;;;64.70;34.30;;;;;;;4.16;90.68;93887.58;106786;1275;22539;-80
2023/11/05 05:43:44;;;;;;;37.50;17.90;;;;;;;4.14;91.20;93890.59;106743;1275;24403;-79
2023/11/05 05:46:16;;;;;;;13.10;6.50;;;;;;;4.16;91.51;93884.96;106772;1275;22644;-79
2023/11/05 05:48:44;;;;;;;19.10;11.70;;;;;;;4.17;91.35;93881.13;106773;1274;24329;-79
2023/11/05 05:51:14;;;;;;;10.70;5.10;;;;;;;4.17;91.27;93877.13;106700;1275;22513;-79
2023/11/05 05:53:43;;;;;;;60.70;30.10;;;;;;;4.13;91.15;93869.21;106802;1253;25626;-80
2023/11/05 05:56:13;;;;;;;60.20;32.70;;;;;;;4.08;91.30;93859.03;106842;1275;23144;-79
2023/11/05 05:58:44;;;;;;;5.50;2.80;;;;;;;4.12;91.47;93851.13;106761;1275;22528;-79
2023/11/05 06:01:12;;;;;;;10.00;6.40;;;;;;;4.12;91.36;93846.42;106668;1275;22515;-79
2023/11/05 06:03:41;;;;;;;36.50;24.70;;;;;;;4.13;91.65;93843.27;106733;1274;24209;-80
2023/11/05 06:06:09;;;;;;;63.70;36.30;;;;;;;4.17;91.59;93849.62;106769;1274;22533;-80
2023/11/05 06:08:37;;;;;;;91.70;44.50;;;;;;;4.24;91.84;93839.20;106720;1274;24268;-80
2023/11/05 06:11:06;;;;;;;52.70;36.20;;;;;;;4.38;92.22;93839.76;106643;1275;25411;-79
2023/11/05 06:13:37;;;;;;;51.50;32.70;;;;;;;4.53;92.35;93839.95;106835;1274;22522;-80
2023/11/05 06:16:05;;;;;;;36.80;24.20;;;;;;;4.65;91.88;93837.57;106793;1257;24280;-80
2023/11/05 06:18:33;;;;;;;48.40;29.20;;;;;;;4.70;91.19;93841.27;106742;1275;25372;-79
2023/11/05 06:21:02;;;;;;;44.90;26.80;;;;;;;4.70;90.82;93839.54;106810;1275;22943;-80
2023/11/05 06:23:30;;;;;;;36.00;22.80;;;;;;;4.73;91.35;93841.36;106788;1274;22530;-79
2023/11/05 06:25:58;;;;;;;32.20;19.70;;;;;;;4.83;91.52;93841.31;106686;1275;25543;-80
2023/11/05 06:28:26;;;;;;;34.60;18.40;;;;;;;4.90;91.59;93840.09;106765;1275;25497;-80
2023/11/05 06:30:54;;;;;;;25.50;15.40;;;;;;;5.04;91.88;93835.73;106717;1275;24336;-80
2023/11/05 06:33:22;;;;;;;63.10;21.90;;;;;;;5.15;91.57;93827.94;106699;1274;22532;-79
2023/11/05 06:35:51;;;;;;;23.30;10.50;;;;;;;5.23;91.44;93813.25;106716;1257;24373;-79
2023/11/05 06:38:19;;;;;;;19.80;10.70;;;;;;;5.27;90.87;93819.09;106623;1275;22573;-79
2023/11/05 06:40:47;;;;;;;11.40;6.10;;;;;;;5.30;91.26;93814.81;106736;1275;22530;-79
2023/11/05 06:43:15;;;;;;;37.70;15.10;;;;;;;5.35;91.31;93812.77;106794;1274;25589;-80
2023/11/05 06:45:43;;;;;;;46.00;21.70;;;;;;;5.41;91.71;93805.46;106741;1275;23880;-80
2023/11/05 06:48:12;;;;;;;55.70;28.30;;;;;;;5.48;91.80;93805.26;106746;1275;22787;-79
2023/11/05 06:50:40;;;;;;;50.50;27.80;;;;;;;5.56;91.80;93799.46;106731;1274;22614;-80
2023/11/05 06:53:08;;;;;;;58.60;34.60;;;;;;;5.69;91.83;93797.17;106738;1263;24492;-79
2023/11/05 06:55:36;;;;;;;58.40;33.60;;;;;;;5.80;91.67;93787.10;106761;1275;24268;-80
2023/11/05 06:58:04;;;;;;;51.00;33.10;;;;;;;5.91;91.56;93785.39;106713;1274;25462;-79
2023/11/05 07:00:33;;;;;;;35.10;22.00;;;;;;;6.04;91.52;93777.83;106730;1275;26611;-78
2023/11/05 07:03:01;;;;;;;21.20;13.70;;;;;;;6.22;91.56;93773.11;106824;1274;22640;-79
2023/11/05 07:05:29;;;;;;;20.60;12.90;;;;;;;6.41;91.40;93768.67;106764;1275;22555;-79
2023/11/05 07:07:57;;;;;;;14.50;9.30;;;;;;;6.62;91.25;93762.21;106769;1275;23884;-79
2023/11/05 07:10:27;;;;;;;11.90;7.80;;;;;;;6.88;90.81;93754.02;106772;1274;24207;-79
2023/11/05 07:12:55;;;;;;;6.40;4.60;;;;;;;7.11;90.41;93741.16;106740;1274;24305;-79
2023/11/05 07:15:27;;;;;;;5.30;2.80;;;;;;;7.32;89.88;93727.68;106764;1275;25520;-78
2023/11/05 07:17:55;;;;;;;4.30;2.40;;;;;;;7.54;88.34;93722.70;106517;1274;22645;-80
2023/11/05 07:20:23;;;;;;;3.70;2.20;;;;;;;7.74;88.16;93709.17;106796;1274;23894;-80
2023/11/05 07:22:51;;;;;;;3.20;1.80;;;;;;;7.90;88.14;93704.88;106718;1274;23922;-81
2023/11/05 07:25:20;;;;;;;2.90;1.40;;;;;;;8.09;87.78;93705.19;106685;1275;22655;-80
2023/11/05 07:27:48;;;;;;;5.30;1.70;;;;;;;8.40;87.42;93707.11;106777;1274;24344;-79
2023/11/05 07:30:17;;;;;;;5.60;2.10;;;;;;;8.73;84.88;93703.52;106838;1263;22527;-79
2023/11/05 07:32:47;;;;;;;3.60;1.60;;;;;;;8.97;81.48;93700.05;106738;1275;25431;-80
2023/11/05 07:35:15;;;;;;;3.20;1.50;;;;;;;9.12;81.58;93705.88;106604;1275;22511;-80
2023/11/05 07:37:43;;;;;;;1.60;0.90;;;;;;;9.23;79.61;93705.95;106742;1274;25291;-78
2023/11/05 07:40:12;;;;;;;6.60;3.10;;;;;;;9.35;78.34;93706.12;106750;1274;25246;-80
2023/11/05 07:42:41;;;;;;;5.20;2.20;;;;;;;9.47;79.29;93700.85;106646;1275;25294;-79
2023/11/05 07:45:10;;;;;;;2.20;1.00;;;;;;;9.57;78.67;93693.02;106838;1274;25440;-79
2023/11/05 07:47:39;;;;;;;2.40;0.90;;;;;;;9.67;75.56;93690.96;106723;1275;22538;-79
2023/11/05 07:50:10;;;;;;;1.40;0.90;;;;;;;9.74;76.32;93690.30;106750;1275;25290;-80
2023/11/05 07:52:43;;;;;;;2.10;0.90;;;;;;;9.78;76.56;93670.64;106850;1274;22524;-82
2023/11/05 07:55:12;;;;;;;2.30;1.00;;;;;;;9.81;75.08;93656.64;106672;1274;23932;-80
2023/11/05 07:57:40;;;;;;;2.00;0.80;;;;;;;9.83;74.55;93651.11;106605;1275;22547;-80
2023/11/05 08:00:15;;;;;;;1.20;0.80;;;;;;;9.84;74.95;93650.69;106683;1274;22534;-80
2023/11/05 08:02:44;;;;;;;1.50;0.80;;;;;;;9.87;75.42;93651.08;106827;1274;22525;-79
2023/11/05 08:05:13;;;;;;;1.80;1.00;;;;;;;9.90;76.25;93647.09;106762;1275;23912;-79
2023/11/05 08:07:42;;;;;;;2.10;1.00;;;;;;;9.94;76.45;93643.71;106724;1274;22524;-81
2023/11/05 08:10:10;;;;;;;5.00;2.00;;;;;;;10.03;73.12;93640.33;106669;1275;25300;-76
2023/11/05 08:12:39;;;;;;;4.20;1.70;;;;;;;10.17;71.56;93633.84;106875;1275;22562;-79
2023/11/05 08:15:09;;;;;;;2.00;0.90;;;;;;;10.29;72.22;93629.46;106767;1274;24333;-79
2023/11/05 08:17:41;;;;;;;3.60;1.60;;;;;;;10.38;71.72;93631.81;106768;1274;22653;-79
2023/11/05 08:20:11;;;;;;;3.60;1.20;;;;;;;10.46;71.18;93617.70;106877;1275;22540;-79
2023/11/05 08:22:42;;;;;;;4.10;2.00;;;;;;;10.50;69.37;93617.31;106791;1275;22527;-80
2023/11/05 08:25:14;;;;;;;7.40;2.70;;;;;;;10.55;69.15;93608.82;106775;1275;22684;-79
2023/11/05 08:27:42;;;;;;;7.50;3.20;;;;;;;10.56;69.24;93607.87;106798;1274;23706;-79
2023/11/05 08:30:13;;;;;;;5.70;2.70;;;;;;;10.57;68.11;93600.63;106634;1274;24272;-81
2023/11/05 08:32:42;;;;;;;8.70;3.70;;;;;;;10.61;66.47;93597.80;106648;1275;25431;-78
2023/11/05 08:35:11;;;;;;;8.00;3.20;;;;;;;10.64;67.11;93590.07;106663;1275;26645;-79
2023/11/05 08:37:40;;;;;;;4.20;2.00;;;;;;;10.65;67.57;93587.23;106706;1266;23887;-79
2023/11/05 08:40:13;;;;;;;4.80;2.40;;;;;;;10.66;65.60;93594.38;106736;1275;24382;-80
2023/11/05 08:42:43;;;;;;;5.60;2.70;;;;;;;10.72;63.56;93603.72;106713;1275;22581;-78
2023/11/05 08:45:14;;;;;;;6.30;3.50;;;;;;;10.78;64.40;93611.17;106740;1272;22530;-78
2023/11/05 08:47:42;;;;;;;8.00;4.00;;;;;;;10.81;64.61;93611.88;106815;1275;23850;-78
2023/11/05 08:50:11;;;;;;;7.80;3.90;;;;;;;10.81;64.27;93600.08;106570;1274;25520;-78
2023/11/05 08:52:39;;;;;;;8.10;4.70;;;;;;;10.82;64.31;93596.86;106739;1274;24442;-79
2023/11/05 08:55:11;;;;;;;3.50;1.70;;;;;;;10.82;64.55;93575.08;106672;1275;22524;-79
2023/11/05 08:57:40;;;;;;;1.60;1.00;;;;;;;10.81;65.35;93553.00;106719;1275;23884;-81
2023/11/05 09:00:12;;;;;;;1.70;1.00;;;;;;;10.77;65.79;93545.11;106750;1275;22517;-77
2023/11/05 09:02:40;;;;;;;1.70;1.00;;;;;;;10.72;65.95;93545.52;106839;1274;22546;-79
2023/11/05 09:05:10;;;;;;;2.80;1.50;;;;;;;10.70;66.32;93551.63;106778;1275;22517;-79
2023/11/05 09:07:38;;;;;;;7.30;3.70;;;;;;;10.71;66.64;93557.75;106799;1275;22526;-79
2023/11/05 09:10:09;;;;;;;14.20;12.00;;;;;;;10.78;65.84;93571.23;106819;1275;22645;-79
2023/11/05 09:12:38;;;;;;;9.10;4.50;;;;;;;10.91;66.34;93571.81;106775;1275;22611;-80
2023/11/05 09:15:07;;;;;;;6.10;3.30;;;;;;;11.04;67.09;93561.81;106760;1274;26681;-78
2023/11/05 09:17:35;;;;;;;3.80;1.40;;;;;;;11.14;67.42;93544.73;106685;1275;22542;-79
2023/11/05 09:20:08;;;;;;;1.50;0.60;;;;;;;11.23;67.21;93527.15;106787;1275;25294;-79
2023/11/05 09:22:38;;;;;;;2.20;0.60;;;;;;;11.33;67.18;93518.90;106857;1275;25627;-79
2023/11/05 09:25:08;;;;;;;1.10;0.60;;;;;;;11.38;66.45;93511.55;106730;1275;22544;-79
2023/11/05 09:27:37;;;;;;;2.90;1.00;;;;;;;11.38;66.95;93509.45;106843;1270;22569;-79
2023/11/05 09:30:14;;;;;;;4.30;3.20;;;;;;;11.36;67.18;93512.92;106886;1263;22649;-79
2023/11/05 09:32:44;;;;;;;7.00;3.90;;;;;;;11.32;66.58;93508.23;106523;1275;23883;-79
2023/11/05 09:35:13;;;;;;;2.40;2.00;;;;;;;11.29;67.32;93494.13;106771;1274;22528;-79
2023/11/05 09:37:44;;;;;;;5.40;2.40;;;;;;;11.25;67.41;93501.75;106643;1275;22526;-78
2023/11/05 09:40:15;;;;;;;6.60;4.50;;;;;;;11.22;67.81;93504.68;106646;1274;24959;-81
2023/11/05 09:43:04;;;;;;;3.60;2.30;;;;;;;11.22;67.13;93505.23;106611;1275;24054;-78
2023/11/05 09:45:34;;;;;;;3.20;1.70;;;;;;;11.25;67.67;93499.77;106816;1275;23137;-79
2023/11/05 09:48:08;;;;;;;2.00;1.20;;;;;;;11.25;68.20;93490.09;106568;1275;26147;-79
2023/11/05 09:50:38;;;;;;;1.80;0.90;;;;;;;11.25;68.89;93474.44;106749;1260;22702;-81
2023/11/05 09:53:08;;;;;;;7.30;5.90;;;;;;;11.28;69.51;93459.88;106891;1275;22523;-79
2023/11/05 09:55:41;;;;;;;5.00;3.20;;;;;;;11.33;70.48;93455.22;106613;1275;22639;-79
2023/11/05 09:58:10;;;;;;;3.20;2.40;;;;;;;11.40;70.90;93447.20;106789;1274;24373;-81
2023/11/05 10:00:38;;;;;;;1.90;0.70;;;;;;;11.49;71.17;93431.41;106735;1275;22644;-81
2023/11/05 10:03:08;;;;;;;1.80;0.70;;;;;;;11.56;72.01;93423.25;106420;1274;226744;-80
2023/11/05 10:05:39;;;;;;;2.30;0.90;;;;;;;11.67;72.29;93426.65;106863;1274;23903;-80
2023/11/05 10:08:08;;;;;;;2.80;1.20;;;;;;;11.84;72.53;93419.73;106754;1274;22686;-80
2023/11/05 10:10:38;;;;;;;4.70;1.20;;;;;;;12.11;72.67;93409.70;106719;1274;22531;-79
2023/11/05 10:13:06;;;;;;;0.70;0.40;;;;;;;12.51;72.84;93397.73;106780;1275;24215;-80
2023/11/05 10:15:36;;;;;;;2.70;0.40;;;;;;;12.95;72.27;93375.48;106726;1275;22534;-80
2023/11/05 10:18:05;;;;;;;0.50;0.40;;;;;;;13.41;71.20;93365.29;106716;1274;24251;-80
2023/11/05 10:20:48;;;;;;;2.10;0.50;;;;;;;13.82;68.97;93351.49;106736;1275;25649;-80
2023/11/05 10:23:17;;;;;;;1.80;0.40;;;;;;;14.34;68.26;93357.83;106755;1275;24367;-78
2023/11/05 10:25:53;;;;;;;0.70;0.70;;;;;;;14.65;65.95;93344.95;106744;1274;22637;-80
2023/11/05 10:28:23;;;;;;;0.40;0.40;;;;;;;14.84;64.08;93320.25;106667;1274;22600;-80
2023/11/05 10:30:52;;;;;;;2.50;0.70;;;;;;;15.07;62.07;93322.32;106816;1262;25297;-80
2023/11/05 10:33:28;;;;;;;1.60;0.50;;;;;;;15.29;62.69;93332.01;106794;1275;24251;-80
2023/11/05 10:35:57;;;;;;;1.30;0.60;;;;;;;15.80;61.87;93347.10;106792;1275;25476;-80
2023/11/05 10:38:27;;;;;;;3.10;2.00;;;;;;;15.76;59.09;93358.02;106665;1275;22808;-79
2023/11/05 10:40:56;;;;;;;1.50;0.70;;;;;;;15.66;59.44;93343.16;106808;1274;24369;-80
2023/11/05 10:43:25;;;;;;;1.30;1.00;;;;;;;15.57;59.41;93343.45;106722;1274;22766;-78
2023/11/05 10:45:56;;;;;;;2.20;1.20;;;;;;;15.47;59.89;93332.98;106743;1274;22520;-80
2023/11/05 10:48:24;;;;;;;1.70;0.80;;;;;;;15.71;60.56;93326.11;107052;1274;25365;-79
2023/11/05 10:50:53;;;;;;;1.50;0.70;;;;;;;15.70;60.31;93321.05;106910;1275;25246;-78
2023/11/05 10:53:22;;;;;;;4.70;2.50;;;;;;;15.54;59.31;93324.14;106710;1274;23950;-80
2023/11/05 10:55:51;;;;;;;3.00;1.40;;;;;;;15.46;59.86;93315.00;106853;1274;22542;-78
2023/11/05 10:58:21;;;;;;;0.70;0.50;;;;;;;15.33;61.03;93323.23;106774;1275;24209;-80
2023/11/05 11:01:03;;;;;;;1.20;0.60;;;;;;;15.14;61.90;93335.08;106808;1274;22565;-80
2023/11/05 11:03:31;;;;;;;0.50;0.40;;;;;;;15.13;61.81;93325.70;106764;1274;22527;-79
2023/11/05 11:06:02;;;;;;;0.70;0.30;;;;;;;15.11;61.49;93331.03;106724;1274;22526;-78
2023/11/05 11:08:34;;;;;;;1.00;0.60;;;;;;;14.90;61.28;93332.55;106712;1274;24130;-80
2023/11/05 11:11:14;;;;;;;0.90;0.40;;;;;;;14.74;62.25;93329.63;106784;1274;22539;-80
2023/11/05 11:13:52;;;;;;;0.60;0.40;;;;;;;14.62;62.15;93319.14;106769;1274;22524;-78
2023/11/05 11:16:28;;;;;;;1.30;1.00;;;;;;;14.46;62.50;93332.11;106719;1274;24829;-79
2023/11/05 11:18:57;;;;;;;1.10;0.60;;;;;;;14.27;63.22;93315.68;106690;1275;25494;-80
2023/11/05 11:21:26;;;;;;;2.90;1.50;;;;;;;14.09;64.19;93323.84;106694;1274;25523;-78
2023/11/05 11:23:54;;;;;;;0.80;0.40;;;;;;;13.97;64.78;93324.14;106777;1274;24482;-79
2023/11/05 11:26:25;;;;;;;1.20;0.70;;;;;;;13.93;65.32;93310.09;106718;1275;25338;-80
2023/11/05 11:28:57;;;;;;;2.90;1.00;;;;;;;13.86;65.22;93309.81;106792;1275;23106;-79
2023/11/05 11:31:29;;;;;;;2.90;0.90;;;;;;;13.90;65.96;93306.25;106730;1275;25485;-80
2023/11/05 11:33:57;;;;;;;3.20;0.90;;;;;;;13.87;65.66;93297.74;106705;1275;24467;-80
2023/11/05 11:36:25;;;;;;;1.20;0.80;;;;;;;13.73;65.72;93287.91;106669;1264;22526;-80